Virtual LH

Virtual LH. There's no better way to fly
Since 2013.



AIRPORT MAP

METAR AND TAF INFORMATION

METAR FOR EDDG
ADDS - METARS form results

(0038 UTC 29 May 2020)
Data provider http://aviationweather.gov/metar/data/
 
METAR text: EDDG 290020Z VRB02KT CAVOK 08/05 Q1031 NOSIG
Conditions at: EDDG (MUENSTER/OSNABRU, DE) observed 0020 UTC 29 May 2020
Temperature: 8.0°C (46°F)
Dewpoint: 5.0°C (41°F) [RH = 81%]
Pressure (altimeter): 30.44 inches Hg (1031.0 mb)
Winds: variable direction winds at 2 MPH (2 knots; 1.0 m/s)
Visibility: 6 or more miles (10+ km)
Ceiling: ceiling and visibility are OK
Clouds: unknown
Weather: no significant weather observed at this time

METAR text: EDDG 282350Z 03003KT 360V100 CAVOK 08/05 Q1031 NOSIG
Conditions at: EDDG (MUENSTER/OSNABRU, DE) observed 2350 UTC 28 May 2020
Temperature: 8.0°C (46°F)
Dewpoint: 5.0°C (41°F) [RH = 81%]
Pressure (altimeter): 30.44 inches Hg (1031.0 mb)
Winds: from the NNE (30 degrees) at 3 MPH (3 knots; 1.5 m/s)
Visibility: 6 or more miles (10+ km)
Ceiling: ceiling and visibility are OK
Clouds: unknown
Weather: no significant weather observed at this time

Forecast for: EDDG (MUENSTER/OSNABRU, DE)
Text: TAF EDDG 282300Z 2900/2924 VRB03KT CAVOK
Forecast period: 0000 to 0700 UTC 29 May 2020
Forecast type: FROM: standard forecast or significant change
Winds: variable direction winds at 3 MPH (3 knots; 1.5 m/s)
Visibility: 6 or more miles 10+ km)
Ceiling: unknown
Clouds: missing
Weather: NSW  (no significant weather)
Text: BECMG 2907/2910 04007KT
Forecast period: 0700 to 2000 UTC 29 May 2020
Forecast type: BECOMING: Conditions expected to become as follows by 1000 UTC 29 May 2020
Winds: from the NE (40 degrees) at 8 MPH (7 knots; 3.6 m/s)
Visibility: 6 or more miles 10+ km)
Ceiling: unknown
Clouds: missing
Weather: NSW  (no significant weather)
Text: BECMG 2920/2923 VRB03KT
Forecast period: 2000 UTC 29 May 2020 to 0000 UTC 30 May 2020
Forecast type: BECOMING: Conditions expected to become as follows by 2300 UTC 29 May 2020
Winds: variable direction winds at 3 MPH (3 knots; 1.5 m/s)
Visibility: 6 or more miles 10+ km)
Ceiling: unknown
Clouds: missing
Weather: NSW  (no significant weather)

RUNWAY INFORMATION

Runway 07 Runway length 7119 ft Runway width 148 ft
Runway elevation 156 ft Runway displaced threshold 0 ft Runway heading 71
Runway 25 Runway length 7119 ft Runway width 148 ft
Runway elevation 159 ft Runway displaced threshold 656 ft Runway heading 251

AIRPORT FREQUENCIES

Type AFIS Name LANGEN INF Frequency 123.525 MHZ
Type ATIS Name ATIS Frequency 127.175 MHZ
Type GND Name GND Frequency 121.875 MHZ
Type RDR Name LANGEN RAD Frequency 129.3 MHZ
Type TWR Name TWR Frequency 129.8 MHZ

AIRPORT NEAR NAVIGATION AIDS

Type DME Name Munster Frequency 114050 KHZ
Type NDB Name Greven Frequency 305 KHZ
Type NDB Name Munster Frequency 371 KHZ